LAKE NATOMA (NIMBUS DAM) (NAT)

Elevation: 132' · AMERICAN R basin · Operator: US Bureau of Reclamation

Provisional data, subject to change.
Query executed Monday at 13:39:17   clock

Select a sensor type for a plot of data.
Note: Reservoir Flows are daily averages.

Earlier

Date RES ELE    STORAGE    RES CHG    OUTFLOW    INFLOW    SPILL    DIS PWR   
 FEET   AF   AF   CFS   CFS   CFS   CFS  
08/27/2016 122.67 7643 -195 1880 1785 0 1805
08/28/2016 122.77 7688 45 1862 1888 0 1787
08/29/2016 122.92 7755 67 1877 1914 0 1802
08/30/2016 122.94 7764 9 1880 1888 0 1805
08/31/2016 123.72 8129 365 1863 2051 0 1805
09/01/2016 123.75 8144 15 1860 1871 0 1805
09/02/2016 123.41 7984 -160 1873 1795 0 1807
09/03/2016 123.47 8012 28 1883 1901 0 1805
09/04/2016 122.91 7751 -261 1885 1756 0 1804
09/05/2016 123.56 8054 303 1878 2034 0 1803
09/06/2016 124.03 8276 222 1656 1771 0 1584
09/07/2016 123.82 8176 -100 1658 1612 0 1582
09/08/2016 123.90 8214 38 1663 1686 0 1587
09/09/2016 124.01 8266 52 1659 1688 0 1585
09/10/2016 123.97 8247 -19 1635 1628 0 1588
09/11/2016 124.70 8611 364 1647 1834 0 1589
09/12/2016 124.54 8531 -80 1648 1611 0 1576
09/13/2016 124.11 8316 -215 1671 1565 0 1585
09/14/2016 123.02 7800 -516 1678 1420 0 1587
09/15/2016 123.10 7838 38 1649 1671 0 1587
09/16/2016 124.07 8296 458 1636 1870 0 1586
09/17/2016 124.14 8331 35 1666 1687 0 1585
09/18/2016 123.94 8233 -98 1677 1632 0 1586
09/19/2016 124.01 8266 -- 1676 1697 0 1588
09/20/2016 124.07 8296 30 1655 1674 0 1585
09/21/2016 123.96 8242 -54 1651 1627 0 1585
09/22/2016 123.54 8045 -197 1653 1556 0 1587
09/23/2016 123.66 8101 56 1637 1668 0 1571
09/24/2016 123.82 8176 75 1624 1665 0 1558
09/25/2016 123.80 8167 -9 1631 1629 0 1556
09/26/2016 -- -- -- -- -- -- --

Later | Latest

Warning! This data is preliminary and subject to revision.

Show NAT Map | Plot NAT Data | 1 Month NAT Data | Real-Time NAT Data | NAT Info